Yarnell, AZ (85362)

2:26 AM MST on January 30, 2015 (GMT -0700)
Yarnell Proper | Change Station
CLOSE
Current Station
Personal Weather Station
Location: Yarnell, AZ
Elevation: 4760 ft
Nearby Weather Stations

Elev 4760 ft 34.22 °N, 112.75 °W | Updated 12 minutes ago

Rain
Rain
47.8 °F
Feels Like 44 °F
N
8.9
Wind Variable Wind from SSW

Today
High -- | Low -- °F
--% Chance of Precip.
Yesterday
High -- | Low -- °F
Precip. -- in
7:29 AM 5:59 PM
Waxing Gibbous, 81% visible
Pressure 29.90 in
Visibility 6.0 miles
Clouds Overcast 600 ft
Windchill 44 °F
Dew Point 46 °F
Humidity 95%
Rainfall 0.29 in
Snow Depth Not available.
UV 0 out of 12
Pollen 5.30 out of 12
Air Quality Not available.
Flu Activity Not available.
METAR KPRC 300853Z AUTO 14006KT 6SM -RA BR OVC006 08/07 A3004 RMK AO2 CIG 005V009 SLP124 P0003 60009 T00830067 58019

More Conditions Fewer Conditions

Pressure 29.90 in
Visibility 6.0 miles
Clouds Overcast 600 ft
Windchill 44 °F
Dew Point 46 °F
Humidity 95%
Rainfall 0.29 in
Snow Depth Not available.
UV 0 out of 12
Pollen 5.30 out of 12
Air Quality Not available.
Flu Activity Not available.
METAR KPRC 300853Z AUTO 14006KT 6SM -RA BR OVC006 08/07 A3004 RMK AO2 CIG 005V009 SLP124 P0003 60009 T00830067 58019

More Conditions Fewer Conditions

10-Day Weather Forecast

Almanac

Astronomy

Jan. 30, 2015 Rise Set
Actual Time
Civil Twilight
Nautical Twilight
Astronomical Twilight
Moon
Length of Visible Light
Length of Day
Tomorrow will be .
, % of the Moon is Illuminated

Today's Extremes

State Highs State Lows

Community

WunderPhotos

Upload Photos

1,791,737 photos uploaded!

WunderBlogs® & News

Nearby

Air Quality

  Air Quality AQ Index Pollutant
Not available.

Snow Depth

Station Depth Elevation

Earthquake Activity

City Distance Mag. Time & Date
Minimum magnitude displayed is 2.5.

Coastal Water Temperatures

Place Temperature

Nearby Weather Stations